createdAt,value
2016-06-12T00:00:50.279Z,985.33
2016-06-12T00:01:50.282Z,985.35
2016-06-12T00:02:50.285Z,985.33
2016-06-12T00:03:50.288Z,985.32
2016-06-12T00:04:50.854Z,985.36
2016-06-12T00:05:50.294Z,985.38
2016-06-12T00:06:50.298Z,985.3
2016-06-12T00:07:50.286Z,985.35
2016-06-12T00:08:50.329Z,985.35
2016-06-12T00:09:50.371Z,985.32
2016-06-12T00:10:50.397Z,985.3
2016-06-12T00:11:50.453Z,985.28
2016-06-12T00:12:50.494Z,985.28
2016-06-12T00:13:50.519Z,985.24
2016-06-12T00:14:50.520Z,985.28
2016-06-12T00:15:50.538Z,985.23
2016-06-12T00:16:50.632Z,985.26
2016-06-12T00:17:50.586Z,985.25
2016-06-12T00:18:50.597Z,985.21
2016-06-12T00:19:50.949Z,985.23
2016-06-12T00:20:50.613Z,985.18
2016-06-12T00:21:50.621Z,985.19
2016-06-12T00:22:50.614Z,985.19
2016-06-12T00:23:50.635Z,985.2
2016-06-12T00:24:50.625Z,985.2
2016-06-12T00:25:50.630Z,985.17
2016-06-12T00:26:50.635Z,985.16
2016-06-12T00:27:50.640Z,985.15
2016-06-12T00:28:50.644Z,985.16
2016-06-12T00:29:50.648Z,985.13
2016-06-12T00:30:50.651Z,985.13
2016-06-12T00:31:50.655Z,985.09
2016-06-12T00:32:50.658Z,985.1
2016-06-12T00:33:50.662Z,985.1
2016-06-12T00:34:50.665Z,985.12
2016-06-12T00:35:51.074Z,985.1
2016-06-12T00:36:50.672Z,985.1
2016-06-12T00:37:50.675Z,985.1
2016-06-12T00:38:50.678Z,985.13
2016-06-12T00:39:50.682Z,985.07
2016-06-12T00:40:50.684Z,985.05
2016-06-12T00:41:50.672Z,985.07
2016-06-12T00:42:50.690Z,985.09
2016-06-12T00:43:50.694Z,985.11
2016-06-12T00:44:50.681Z,985.08
2016-06-12T00:45:50.700Z,985.1
2016-06-12T00:46:50.703Z,985.08
2016-06-12T00:47:50.706Z,985.08
2016-06-12T00:48:50.709Z,985.1
2016-06-12T00:49:50.791Z,985.13
2016-06-12T00:50:50.777Z,985.07
2016-06-12T00:51:50.703Z,985.08
2016-06-12T00:52:50.721Z,985.04
2016-06-12T00:53:50.725Z,985.05
2016-06-12T00:54:50.728Z,985.04
2016-06-12T00:55:50.714Z,985.05
2016-06-12T00:56:50.734Z,985.01
2016-06-12T00:57:50.721Z,985.07
2016-06-12T00:58:50.724Z,985.02
2016-06-12T00:59:50.727Z,985.01
2016-06-12T01:00:50.730Z,985.03
2016-06-12T01:01:50.733Z,985.01
2016-06-12T01:02:50.736Z,985.04
2016-06-12T01:03:50.756Z,985.05
2016-06-12T01:04:50.742Z,985.03
2016-06-12T01:05:50.745Z,985.03
2016-06-12T01:06:50.748Z,985.04
2016-06-12T01:07:50.752Z,985.04
2016-06-12T01:08:50.754Z,985
2016-06-12T01:09:50.774Z,985
2016-06-12T01:10:50.761Z,985.03
2016-06-12T01:11:50.763Z,985.04
2016-06-12T01:12:50.767Z,985.01
2016-06-12T01:13:50.770Z,984.98
2016-06-12T01:14:50.773Z,985.02
2016-06-12T01:15:50.777Z,984.97
2016-06-12T01:16:50.810Z,985.01
2016-06-12T01:17:50.783Z,984.94
2016-06-12T01:18:50.770Z,984.94
2016-06-12T01:19:50.788Z,984.92
2016-06-12T01:20:51.072Z,984.89
2016-06-12T01:21:50.872Z,984.9
2016-06-12T01:22:50.798Z,984.91
2016-06-12T01:23:50.801Z,984.87
2016-06-12T01:24:50.804Z,984.87
2016-06-12T01:25:50.807Z,984.84
2016-06-12T01:26:50.810Z,984.87
2016-06-12T01:27:50.813Z,984.87
2016-06-12T01:28:50.801Z,984.86
2016-06-12T01:29:50.819Z,984.83
2016-06-12T01:30:50.823Z,984.85
2016-06-12T01:31:50.825Z,984.8
2016-06-12T01:32:50.828Z,984.79
2016-06-12T01:33:50.832Z,984.8
2016-06-12T01:34:50.866Z,984.76
2016-06-12T01:35:50.838Z,984.78
2016-06-12T01:36:50.826Z,984.75
2016-06-12T01:37:50.844Z,984.75
2016-06-12T01:38:50.832Z,984.71
2016-06-12T01:39:50.835Z,984.7
2016-06-12T01:40:50.854Z,984.71
2016-06-12T01:41:50.856Z,984.67
2016-06-12T01:42:50.859Z,984.69
2016-06-12T01:43:50.847Z,984.69
2016-06-12T01:44:50.851Z,984.64
2016-06-12T01:45:50.854Z,984.63
2016-06-12T01:46:50.856Z,984.6
2016-06-12T01:47:50.860Z,984.6
2016-06-12T01:48:50.878Z,984.62
2016-06-12T01:49:50.881Z,984.6
2016-06-12T01:50:50.869Z,984.58
2016-06-12T01:51:50.887Z,984.6
2016-06-12T01:52:50.875Z,984.57
2016-06-12T01:53:50.878Z,984.56
2016-06-12T01:54:50.897Z,984.54
2016-06-12T01:55:50.884Z,984.49
2016-06-12T01:56:50.887Z,984.49
2016-06-12T01:57:50.891Z,984.49
2016-06-12T01:58:50.893Z,984.47
2016-06-12T01:59:50.897Z,984.52
2016-06-12T02:00:50.915Z,984.47
2016-06-12T02:01:50.903Z,984.49
2016-06-12T02:02:50.906Z,984.47
2016-06-12T02:03:50.924Z,984.47
2016-06-12T02:04:50.912Z,984.48
2016-06-12T02:05:50.915Z,984.49
2016-06-12T02:06:50.918Z,984.46
2016-06-12T02:07:50.905Z,984.48
2016-06-12T02:08:50.909Z,984.43
2016-06-12T02:09:50.928Z,984.43
2016-06-12T02:10:50.931Z,984.44
2016-06-12T02:11:50.934Z,984.43
2016-06-12T02:12:50.937Z,984.39
2016-06-12T02:13:50.940Z,984.41
2016-06-12T02:14:50.943Z,984.42
2016-06-12T02:15:50.946Z,984.39
2016-06-12T02:16:50.933Z,984.39
2016-06-12T02:17:50.952Z,984.41
2016-06-12T02:18:50.939Z,984.36
2016-06-12T02:19:50.958Z,984.34
2016-06-12T02:20:51.054Z,984.34
2016-06-12T02:21:50.965Z,984.26
2016-06-12T02:22:50.951Z,984.29
2016-06-12T02:23:50.970Z,984.3
2016-06-12T02:24:50.973Z,984.3
2016-06-12T02:25:50.961Z,984.3
2016-06-12T02:26:50.964Z,984.33
2016-06-12T02:27:50.966Z,984.33
2016-06-12T02:28:50.970Z,984.34
2016-06-12T02:29:50.973Z,984.35
2016-06-12T02:30:50.976Z,984.28
2016-06-12T02:31:50.979Z,984.3
2016-06-12T02:32:50.983Z,984.31
2016-06-12T02:33:50.985Z,984.35
2016-06-12T02:34:50.988Z,984.31
2016-06-12T02:35:50.975Z,984.34
2016-06-12T02:36:50.994Z,984.35
2016-06-12T02:37:50.998Z,984.39
2016-06-12T02:38:51.001Z,984.38
2016-06-12T02:39:51.004Z,984.35
2016-06-12T02:40:51.006Z,984.34
2016-06-12T02:41:51.010Z,984.32
2016-06-12T02:42:50.997Z,984.36
2016-06-12T02:43:51.016Z,984.35
2016-06-12T02:44:51.019Z,984.35
2016-06-12T02:45:51.006Z,984.35
2016-06-12T02:46:51.025Z,984.37
2016-06-12T02:47:51.012Z,984.37
2016-06-12T02:48:51.015Z,984.36
2016-06-12T02:49:51.018Z,984.34
2016-06-12T02:50:51.037Z,984.35
2016-06-12T02:51:51.025Z,984.37
2016-06-12T02:52:51.027Z,984.32
2016-06-12T02:53:51.030Z,984.33
2016-06-12T02:54:51.050Z,984.32
2016-06-12T02:55:51.037Z,984.33
2016-06-12T02:56:51.039Z,984.32
2016-06-12T02:57:51.043Z,984.32
2016-06-12T02:58:51.046Z,984.3
2016-06-12T02:59:51.049Z,984.28
2016-06-12T03:00:51.052Z,984.24
2016-06-12T03:01:51.055Z,984.28
2016-06-12T03:02:51.058Z,984.27
2016-06-12T03:03:51.061Z,984.29
2016-06-12T03:04:51.065Z,984.28
2016-06-12T03:05:51.067Z,984.27
2016-06-12T03:06:51.055Z,984.31
2016-06-12T03:07:51.059Z,984.3
2016-06-12T03:08:51.062Z,984.32
2016-06-12T03:09:51.064Z,984.28
2016-06-12T03:10:51.068Z,984.28
2016-06-12T03:11:51.086Z,984.28
2016-06-12T03:12:51.074Z,984.29
2016-06-12T03:13:51.092Z,984.3
2016-06-12T03:14:51.080Z,984.29
2016-06-12T03:15:51.084Z,984.29
2016-06-12T03:16:51.086Z,984.33
2016-06-12T03:17:51.089Z,984.34
2016-06-12T03:18:51.092Z,984.34
2016-06-12T03:19:51.095Z,984.32
2016-06-12T03:20:51.099Z,984.31
2016-06-12T03:21:51.101Z,984.29
2016-06-12T03:22:51.104Z,984.27
2016-06-12T03:23:51.108Z,984.3
2016-06-12T03:24:51.111Z,984.28
2016-06-12T03:25:51.114Z,984.27
2016-06-12T03:26:51.101Z,984.28
2016-06-12T03:27:51.135Z,984.3
2016-06-12T03:28:51.107Z,984.29
2016-06-12T03:29:51.127Z,984.32
2016-06-12T03:30:51.129Z,984.3
2016-06-12T03:31:51.132Z,984.31
2016-06-12T03:32:51.136Z,984.29
2016-06-12T03:33:51.123Z,984.33
2016-06-12T03:34:51.126Z,984.36
2016-06-12T03:35:51.394Z,984.36
2016-06-12T03:36:51.195Z,984.35
2016-06-12T03:37:51.151Z,984.34
2016-06-12T03:38:51.138Z,984.34
2016-06-12T03:39:51.141Z,984.33
2016-06-12T03:40:51.144Z,984.32
2016-06-12T03:41:51.148Z,984.32
2016-06-12T03:42:51.150Z,984.34
2016-06-12T03:43:51.153Z,984.34
2016-06-12T03:44:51.156Z,984.36
2016-06-12T03:45:51.159Z,984.33
2016-06-12T03:46:51.163Z,984.38
2016-06-12T03:47:51.150Z,984.36
2016-06-12T03:48:51.152Z,984.34
2016-06-12T03:49:51.156Z,984.37
2016-06-12T03:50:51.253Z,984.38
2016-06-12T03:51:51.178Z,984.36
2016-06-12T03:52:51.165Z,984.36
2016-06-12T03:53:51.168Z,984.36
2016-06-12T03:54:51.188Z,984.39
2016-06-12T03:55:51.174Z,984.35
2016-06-12T03:56:51.177Z,984.38
2016-06-12T03:57:51.180Z,984.4
2016-06-12T03:58:51.183Z,984.38
2016-06-12T03:59:51.187Z,984.37
2016-06-12T04:00:51.206Z,984.36
2016-06-12T04:01:51.208Z,984.36
2016-06-12T04:02:51.195Z,984.37
2016-06-12T04:03:51.199Z,984.37
2016-06-12T04:04:51.202Z,984.4
2016-06-12T04:05:51.221Z,984.37
2016-06-12T04:06:51.224Z,984.46
2016-06-12T04:07:51.211Z,984.45
2016-06-12T04:08:51.230Z,984.47
2016-06-12T04:09:51.217Z,984.44
2016-06-12T04:10:51.220Z,984.43
2016-06-12T04:11:51.223Z,984.43
2016-06-12T04:12:51.226Z,984.4
2016-06-12T04:13:51.230Z,984.45
2016-06-12T04:14:51.232Z,984.47
2016-06-12T04:15:51.236Z,984.45
2016-06-12T04:16:51.239Z,984.49
2016-06-12T04:17:51.227Z,984.49
2016-06-12T04:18:51.229Z,984.49
2016-06-12T04:19:51.248Z,984.47
2016-06-12T04:20:51.236Z,984.48
2016-06-12T04:21:51.239Z,984.48
2016-06-12T04:22:51.257Z,984.49
2016-06-12T04:23:51.245Z,984.5
2016-06-12T04:24:51.264Z,984.52
2016-06-12T04:25:51.251Z,984.49
2016-06-12T04:26:51.254Z,984.49
2016-06-12T04:27:51.272Z,984.5
2016-06-12T04:28:51.261Z,984.49
2016-06-12T04:29:51.279Z,984.52
2016-06-12T04:30:51.282Z,984.53
2016-06-12T04:31:51.269Z,984.49
2016-06-12T04:32:51.288Z,984.48
2016-06-12T04:33:51.276Z,984.49
2016-06-12T04:34:51.294Z,984.5
2016-06-12T04:35:52.219Z,984.45
2016-06-12T04:36:51.285Z,984.45
2016-06-12T04:37:51.289Z,984.47
2016-06-12T04:38:51.291Z,984.47
2016-06-12T04:39:51.294Z,984.44
2016-06-12T04:40:51.298Z,984.41
2016-06-12T04:41:51.301Z,984.44
2016-06-12T04:42:51.304Z,984.41
2016-06-12T04:43:51.307Z,984.43
2016-06-12T04:44:51.310Z,984.44
2016-06-12T04:45:51.313Z,984.42
2016-06-12T04:46:51.300Z,984.45
2016-06-12T04:47:51.319Z,984.44
2016-06-12T04:48:51.322Z,984.39
2016-06-12T04:49:51.325Z,984.43
2016-06-12T04:50:52.156Z,984.41
2016-06-12T04:51:51.785Z,984.44
2016-06-12T04:52:51.334Z,984.39
2016-06-12T04:53:51.321Z,984.4
2016-06-12T04:54:51.325Z,984.38
2016-06-12T04:55:51.328Z,984.37
2016-06-12T04:56:51.330Z,984.4
2016-06-12T04:57:51.350Z,984.44
2016-06-12T04:58:51.337Z,984.47
2016-06-12T04:59:51.356Z,984.44
2016-06-12T05:00:51.343Z,984.47
2016-06-12T05:01:51.346Z,984.47
2016-06-12T05:02:51.365Z,984.45
2016-06-12T05:03:51.368Z,984.5
2016-06-12T05:04:51.371Z,984.46
2016-06-12T05:05:51.734Z,984.46
2016-06-12T05:06:51.550Z,984.5
2016-06-12T05:07:51.364Z,984.47
2016-06-12T05:08:51.367Z,984.47
2016-06-12T05:09:51.371Z,984.45
2016-06-12T05:10:51.374Z,984.47
2016-06-12T05:11:51.376Z,984.52
2016-06-12T05:12:51.380Z,984.49
2016-06-12T05:13:51.399Z,984.48
2016-06-12T05:14:51.386Z,984.47
2016-06-12T05:15:51.389Z,984.46
2016-06-12T05:16:51.439Z,984.48
2016-06-12T05:17:51.411Z,984.46
2016-06-12T05:18:51.399Z,984.43
2016-06-12T05:19:51.401Z,984.44
2016-06-12T05:20:51.404Z,984.45
2016-06-12T05:21:51.736Z,984.44
2016-06-12T05:22:51.411Z,984.45
2016-06-12T05:23:51.413Z,984.44
2016-06-12T05:24:51.417Z,984.44
2016-06-12T05:25:51.419Z,984.45
2016-06-12T05:26:51.423Z,984.46
2016-06-12T05:27:51.426Z,984.5
2016-06-12T05:28:51.429Z,984.44
2016-06-12T05:29:51.432Z,984.45
2016-06-12T05:30:51.436Z,984.46
2016-06-12T05:31:51.438Z,984.48
2016-06-12T05:32:51.442Z,984.45
2016-06-12T05:33:51.444Z,984.44
2016-06-12T05:34:51.448Z,984.45
2016-06-12T05:35:51.450Z,984.44
2016-06-12T05:36:51.454Z,984.46
2016-06-12T05:37:51.457Z,984.42
2016-06-12T05:38:51.476Z,984.41
2016-06-12T05:39:51.463Z,984.44
2016-06-12T05:40:51.466Z,984.46
2016-06-12T05:41:51.469Z,984.47
2016-06-12T05:42:51.472Z,984.49
2016-06-12T05:43:51.475Z,984.47
2016-06-12T05:44:51.478Z,984.46
2016-06-12T05:45:51.481Z,984.45
2016-06-12T05:46:51.515Z,984.44
2016-06-12T05:47:51.487Z,984.42
2016-06-12T05:48:51.490Z,984.44
2016-06-12T05:49:51.493Z,984.44
2016-06-12T05:50:51.747Z,984.45
2016-06-12T05:51:51.500Z,984.4
2016-06-12T05:52:51.519Z,984.41
2016-06-12T05:53:51.506Z,984.44
2016-06-12T05:54:51.509Z,984.46
2016-06-12T05:55:51.512Z,984.46
2016-06-12T05:56:51.515Z,984.44
2016-06-12T05:57:51.519Z,984.43
2016-06-12T05:58:51.537Z,984.41
2016-06-12T05:59:51.524Z,984.41
2016-06-12T06:00:51.528Z,984.39
2016-06-12T06:01:51.530Z,984.4
2016-06-12T06:02:51.534Z,984.42
2016-06-12T06:03:51.536Z,984.42
2016-06-12T06:04:51.540Z,984.41
2016-06-12T06:05:51.542Z,984.43
2016-06-12T06:06:51.546Z,984.44
2016-06-12T06:07:51.549Z,984.44
2016-06-12T06:08:51.568Z,984.44
2016-06-12T06:09:51.555Z,984.45
2016-06-12T06:10:51.558Z,984.42
2016-06-12T06:11:51.577Z,984.45
2016-06-12T06:12:51.564Z,984.48
2016-06-12T06:13:51.567Z,984.46
2016-06-12T06:14:51.571Z,984.42
2016-06-12T06:15:51.573Z,984.44
2016-06-12T06:16:51.576Z,984.43
2016-06-12T06:17:51.580Z,984.4
2016-06-12T06:18:51.583Z,984.39
2016-06-12T06:19:51.602Z,984.37
2016-06-12T06:20:51.588Z,984.36
2016-06-12T06:21:51.592Z,984.41
2016-06-12T06:22:51.611Z,984.4
2016-06-12T06:23:51.598Z,984.38
2016-06-12T06:24:51.601Z,984.39
2016-06-12T06:25:51.605Z,984.41
2016-06-12T06:26:51.607Z,984.41
2016-06-12T06:27:51.610Z,984.41
2016-06-12T06:28:51.614Z,984.38
2016-06-12T06:29:51.617Z,984.41
2016-06-12T06:30:51.620Z,984.44
2016-06-12T06:31:51.638Z,984.38
2016-06-12T06:32:51.626Z,984.41
2016-06-12T06:33:51.629Z,984.36
2016-06-12T06:34:51.631Z,984.35
2016-06-12T06:35:51.635Z,984.35
2016-06-12T06:36:51.654Z,984.33
2016-06-12T06:37:51.641Z,984.29
2016-06-12T06:38:51.675Z,984.36
2016-06-12T06:39:51.648Z,984.31
2016-06-12T06:40:51.651Z,984.33
2016-06-12T06:41:51.653Z,984.37
2016-06-12T06:42:51.657Z,984.36
2016-06-12T06:43:51.675Z,984.35
2016-06-12T06:44:51.663Z,984.36
2016-06-12T06:45:51.666Z,984.38
2016-06-12T06:46:51.669Z,984.35
2016-06-12T06:47:51.672Z,984.38
2016-06-12T06:48:51.674Z,984.34
2016-06-12T06:49:51.678Z,984.28
2016-06-12T06:50:51.697Z,984.32
2016-06-12T06:51:52.497Z,984.38
2016-06-12T06:52:51.703Z,984.33
2016-06-12T06:53:51.690Z,984.33
2016-06-12T06:54:51.709Z,984.32
2016-06-12T06:55:51.712Z,984.33
2016-06-12T06:56:51.716Z,984.31
2016-06-12T06:57:51.719Z,984.38
2016-06-12T06:58:51.705Z,984.35
2016-06-12T06:59:51.709Z,984.38
2016-06-12T07:00:51.728Z,984.39
2016-06-12T07:01:51.731Z,984.35
2016-06-12T07:02:51.734Z,984.45
2016-06-12T07:03:51.737Z,984.41
2016-06-12T07:04:51.740Z,984.44
2016-06-12T07:05:51.743Z,984.41
2016-06-12T07:06:51.794Z,984.38
2016-06-12T07:07:51.750Z,984.36
2016-06-12T07:08:51.768Z,984.39
2016-06-12T07:09:51.770Z,984.38
2016-06-12T07:10:51.774Z,984.39
2016-06-12T07:11:51.777Z,984.34
2016-06-12T07:12:51.765Z,984.35
2016-06-12T07:13:51.767Z,984.34
2016-06-12T07:14:51.786Z,984.34
2016-06-12T07:15:51.789Z,984.26
2016-06-12T07:16:51.792Z,984.27
2016-06-12T07:17:51.780Z,984.28
2016-06-12T07:18:51.798Z,984.25
2016-06-12T07:19:51.801Z,984.23
2016-06-12T07:20:51.804Z,984.28
2016-06-12T07:21:51.807Z,984.27
2016-06-12T07:22:51.827Z,984.26
2016-06-12T07:23:51.814Z,984.26
2016-06-12T07:24:51.816Z,984.24
2016-06-12T07:25:51.836Z,984.29
2016-06-12T07:26:51.838Z,984.31
2016-06-12T07:27:51.825Z,984.28
2016-06-12T07:28:51.845Z,984.3
2016-06-12T07:29:51.848Z,984.27
2016-06-12T07:30:51.851Z,984.27
2016-06-12T07:31:51.870Z,984.26
2016-06-12T07:32:51.857Z,984.25
2016-06-12T07:33:51.860Z,984.21
2016-06-12T07:34:51.863Z,984.21
2016-06-12T07:35:51.866Z,984.21
2016-06-12T07:36:52.478Z,984.15
2016-06-12T07:37:51.889Z,984.22
2016-06-12T07:38:51.876Z,984.16
2016-06-12T07:39:51.910Z,984.18
2016-06-12T07:40:51.898Z,984.19
2016-06-12T07:41:51.932Z,984.21
2016-06-12T07:42:51.904Z,984.2
2016-06-12T07:43:51.907Z,984.22
2016-06-12T07:44:51.910Z,984.17
2016-06-12T07:45:51.928Z,984.16
2016-06-12T07:46:51.916Z,984.19
2016-06-12T07:47:51.919Z,984.17
2016-06-12T07:48:51.922Z,984.18
2016-06-12T07:49:51.925Z,984.16
2016-06-12T07:50:51.943Z,984.21
2016-06-12T07:51:52.446Z,984.19
2016-06-12T07:52:51.950Z,984.2
2016-06-12T07:53:51.953Z,984.17
2016-06-12T07:54:51.956Z,984.16
2016-06-12T07:55:51.959Z,984.18
2016-06-12T07:56:51.962Z,984.13
2016-06-12T07:57:51.981Z,984.12
2016-06-12T07:58:51.968Z,984.11
2016-06-12T07:59:51.987Z,984.11
2016-06-12T08:00:51.990Z,984.13
2016-06-12T08:01:51.994Z,984.07
2016-06-12T08:02:51.978Z,984.11
2016-06-12T08:03:51.980Z,984.13
2016-06-12T08:04:52.000Z,984.1
2016-06-12T08:05:52.002Z,984.17
2016-06-12T08:06:52.005Z,984.08
2016-06-12T08:07:52.009Z,984.07
2016-06-12T08:08:52.011Z,984.1
2016-06-12T08:09:52.015Z,984.13
2016-06-12T08:10:52.018Z,984.13
2016-06-12T08:11:52.037Z,984.12
2016-06-12T08:12:52.024Z,984.09
2016-06-12T08:13:52.027Z,984.13
2016-06-12T08:14:52.030Z,984.06
2016-06-12T08:15:52.033Z,984.11
2016-06-12T08:16:52.114Z,984.06
2016-06-12T08:17:52.055Z,984.06
2016-06-12T08:18:52.042Z,984.08
2016-06-12T08:19:52.062Z,984.06
2016-06-12T08:20:52.064Z,984.07
2016-06-12T08:21:52.271Z,984.1
2016-06-12T08:22:52.071Z,984.05
2016-06-12T08:23:52.074Z,984.07
2016-06-12T08:24:52.077Z,984.08
2016-06-12T08:25:52.080Z,984.05
2016-06-12T08:26:52.177Z,984.12
2016-06-12T08:27:52.086Z,984.07
2016-06-12T08:28:52.089Z,984.1
2016-06-12T08:29:52.093Z,984.11
2016-06-12T08:30:52.110Z,984.07
2016-06-12T08:31:52.177Z,984.05
2016-06-12T08:32:52.116Z,984.03
2016-06-12T08:33:52.119Z,984.02
2016-06-12T08:34:52.123Z,984
2016-06-12T08:35:52.125Z,984.05
2016-06-12T08:36:52.129Z,983.99
2016-06-12T08:37:52.132Z,984
2016-06-12T08:38:52.151Z,984.01
2016-06-12T08:39:52.138Z,983.96
2016-06-12T08:40:52.157Z,983.95
2016-06-12T08:41:52.160Z,983.91
2016-06-12T08:42:52.148Z,983.93
2016-06-12T08:43:52.151Z,983.89
2016-06-12T08:44:52.169Z,983.89
2016-06-12T08:45:52.173Z,983.9
2016-06-12T08:46:52.190Z,983.91
2016-06-12T08:47:52.178Z,983.92
2016-06-12T08:48:52.182Z,983.89
2016-06-12T08:49:52.200Z,983.93
2016-06-12T08:50:52.188Z,983.93
2016-06-12T08:51:52.206Z,983.93
2016-06-12T08:52:52.194Z,983.95
2016-06-12T08:53:52.212Z,983.94
2016-06-12T08:54:52.216Z,983.95
2016-06-12T08:55:52.219Z,983.97
2016-06-12T08:56:52.268Z,983.95
2016-06-12T08:57:52.225Z,983.93
2016-06-12T08:58:52.228Z,983.97
2016-06-12T08:59:52.231Z,983.96
2016-06-12T09:00:52.233Z,983.92
2016-06-12T09:01:52.331Z,983.94
2016-06-12T09:02:52.240Z,983.93
2016-06-12T09:03:52.243Z,983.89
2016-06-12T09:04:52.246Z,983.88
2016-06-12T09:05:52.265Z,983.92
2016-06-12T09:06:52.252Z,983.91
2016-06-12T09:07:52.271Z,983.85
2016-06-12T09:08:52.275Z,983.89
2016-06-12T09:09:52.277Z,983.9
2016-06-12T09:10:52.281Z,983.88
2016-06-12T09:11:52.300Z,983.9
2016-06-12T09:12:52.302Z,983.91
2016-06-12T09:13:52.289Z,983.92
2016-06-12T09:14:52.294Z,983.94
2016-06-12T09:15:52.337Z,983.93
2016-06-12T09:16:52.397Z,983.95
2016-06-12T09:17:52.441Z,983.93
2016-06-12T09:18:52.485Z,983.92
2016-06-12T09:19:52.543Z,983.94
2016-06-12T09:20:52.561Z,983.89
2016-06-12T09:21:52.563Z,983.91
2016-06-12T09:22:52.581Z,983.87
2016-06-12T09:23:52.599Z,983.91
2016-06-12T09:24:52.616Z,983.91
2016-06-12T09:25:52.624Z,983.89
2016-06-12T09:26:52.632Z,983.92
2016-06-12T09:27:52.640Z,983.92
2016-06-12T09:28:52.649Z,983.92
2016-06-12T09:29:52.672Z,983.92
2016-06-12T09:30:52.677Z,983.98
2016-06-12T09:31:52.681Z,984.01
2016-06-12T09:32:52.687Z,983.96
2016-06-12T09:33:52.691Z,983.96
2016-06-12T09:34:52.696Z,983.93
2016-06-12T09:35:52.700Z,983.98
2016-06-12T09:36:52.704Z,983.96
2016-06-12T09:37:52.724Z,983.99
2016-06-12T09:38:52.711Z,983.93
2016-06-12T09:39:52.732Z,983.98
2016-06-12T09:40:52.735Z,983.93
2016-06-12T09:41:52.738Z,983.93
2016-06-12T09:42:52.742Z,983.95
2016-06-12T09:43:52.745Z,983.91
2016-06-12T09:44:52.749Z,983.93
2016-06-12T09:45:52.752Z,983.99
2016-06-12T09:46:52.771Z,983.99
2016-06-12T09:47:52.758Z,984.05
2016-06-12T09:48:52.777Z,984.01
2016-06-12T09:49:52.764Z,984.03
2016-06-12T09:50:52.767Z,984.01
2016-06-12T09:51:52.787Z,983.98
2016-06-12T09:52:52.773Z,984
2016-06-12T09:53:52.776Z,983.99
2016-06-12T09:54:52.796Z,984.01
2016-06-12T09:55:52.799Z,984.04
2016-06-12T09:56:52.801Z,984
2016-06-12T09:57:52.804Z,983.98
2016-06-12T09:58:52.792Z,983.96
2016-06-12T09:59:52.811Z,983.95
2016-06-12T10:00:52.814Z,983.95
2016-06-12T10:01:52.832Z,983.92
2016-06-12T10:02:52.820Z,983.92
2016-06-12T10:03:52.823Z,983.91
2016-06-12T10:04:52.826Z,983.9
2016-06-12T10:05:52.829Z,983.9
2016-06-12T10:06:52.879Z,983.9
2016-06-12T10:07:52.850Z,983.9
2016-06-12T10:08:52.853Z,983.88
2016-06-12T10:09:52.857Z,983.89
2016-06-12T10:10:52.860Z,983.87
2016-06-12T10:11:52.878Z,983.87
2016-06-12T10:12:52.882Z,983.84
2016-06-12T10:13:52.869Z,983.79
2016-06-12T10:14:52.888Z,983.79
2016-06-12T10:15:52.891Z,983.77
2016-06-12T10:16:52.894Z,983.76
2016-06-12T10:17:52.897Z,983.79
2016-06-12T10:18:52.900Z,983.78
2016-06-12T10:19:52.904Z,983.79
2016-06-12T10:20:52.921Z,983.77
2016-06-12T10:21:52.924Z,983.76
2016-06-12T10:22:52.928Z,983.74
2016-06-12T10:23:52.947Z,983.72
2016-06-12T10:24:52.950Z,983.68
2016-06-12T10:25:52.953Z,983.69
2016-06-12T10:26:52.956Z,983.67
2016-06-12T10:27:52.959Z,983.68
2016-06-12T10:28:52.962Z,983.73
2016-06-12T10:29:52.965Z,983.64
2016-06-12T10:30:52.984Z,983.64
2016-06-12T10:31:52.988Z,983.6
2016-06-12T10:32:52.991Z,983.54
2016-06-12T10:33:52.994Z,983.53
2016-06-12T10:34:52.996Z,983.55
2016-06-12T10:35:53.000Z,983.57
2016-06-12T10:36:53.003Z,983.54
2016-06-12T10:37:53.209Z,983.51
2016-06-12T10:38:53.024Z,983.57
2016-06-12T10:39:53.043Z,983.62
2016-06-12T10:40:53.030Z,983.63
2016-06-12T10:41:53.049Z,983.62
2016-06-12T10:42:53.068Z,983.61
2016-06-12T10:43:53.055Z,983.59
2016-06-12T10:44:53.074Z,983.63
2016-06-12T10:45:53.077Z,983.61
2016-06-12T10:46:53.064Z,983.61
2016-06-12T10:47:53.067Z,983.57
2016-06-12T10:48:53.087Z,983.52
2016-06-12T10:49:53.090Z,983.45
2016-06-12T10:50:53.092Z,983.47
2016-06-12T10:51:53.111Z,983.43
2016-06-12T10:52:53.114Z,983.41
2016-06-12T10:53:53.116Z,983.44
2016-06-12T10:54:53.120Z,983.38
2016-06-12T10:55:53.123Z,983.43
2016-06-12T10:56:53.142Z,983.36
2016-06-12T10:57:53.145Z,983.38
2016-06-12T10:58:53.149Z,983.35
2016-06-12T10:59:53.151Z,983.3
2016-06-12T11:00:53.154Z,983.29
2016-06-12T11:01:53.172Z,983.26
2016-06-12T11:02:53.176Z,983.44
2016-06-12T11:03:53.195Z,983.43
2016-06-12T11:04:53.181Z,983.53
2016-06-12T11:05:53.185Z,983.52
2016-06-12T11:06:53.204Z,983.5
2016-06-12T11:07:53.237Z,983.41
2016-06-12T11:08:53.210Z,983.36
2016-06-12T11:09:53.213Z,983.26
2016-06-12T11:10:53.232Z,983.17
2016-06-12T11:11:53.235Z,983.12
2016-06-12T11:12:53.269Z,983.14
2016-06-12T11:13:53.256Z,983.09
2016-06-12T11:14:53.260Z,983.06
2016-06-12T11:15:53.263Z,983.06
2016-06-12T11:16:53.266Z,983.04
2016-06-12T11:17:53.269Z,983.07
2016-06-12T11:18:53.287Z,983.08
2016-06-12T11:19:53.275Z,983.04
2016-06-12T11:20:53.294Z,983.09
2016-06-12T11:21:53.297Z,983.08
2016-06-12T11:22:53.472Z,983.13
2016-06-12T11:23:53.303Z,983.1
2016-06-12T11:24:53.337Z,983.12
2016-06-12T11:25:53.325Z,983.16
2016-06-12T11:26:53.343Z,983.2
2016-06-12T11:27:53.331Z,983.24
2016-06-12T11:28:53.334Z,983.3
2016-06-12T11:29:53.353Z,983.32
2016-06-12T11:30:53.355Z,983.33
2016-06-12T11:31:53.358Z,983.34
2016-06-12T11:32:53.378Z,983.34
2016-06-12T11:33:53.365Z,983.34
2016-06-12T11:34:53.368Z,983.36
2016-06-12T11:35:53.371Z,983.38
2016-06-12T11:36:53.390Z,983.34
2016-06-12T11:37:53.394Z,983.34
2016-06-12T11:38:53.397Z,983.33
2016-06-12T11:39:53.400Z,983.29
2016-06-12T11:40:53.403Z,983.27
2016-06-12T11:41:53.405Z,983.25
2016-06-12T11:42:53.423Z,983.29
2016-06-12T11:43:53.442Z,983.18
2016-06-12T11:44:53.429Z,983.17
2016-06-12T11:45:53.433Z,983.14
2016-06-12T11:46:53.452Z,983.16
2016-06-12T11:47:53.439Z,983.25
2016-06-12T11:48:53.458Z,983.19
2016-06-12T11:49:53.461Z,983.16
2016-06-12T11:50:53.464Z,983.17
2016-06-12T11:51:53.514Z,983.15
2016-06-12T11:52:53.470Z,983.22
2016-06-12T11:53:53.490Z,983.25
2016-06-12T11:54:53.507Z,983.22
2016-06-12T11:55:53.496Z,983.38
2016-06-12T11:56:53.577Z,983.34
2016-06-12T11:57:53.501Z,983.38
2016-06-12T11:58:53.535Z,983.33
2016-06-12T11:59:53.523Z,983.32
2016-06-12T12:00:53.542Z,983.3
2016-06-12T12:01:53.529Z,983.32
2016-06-12T12:02:53.548Z,983.32
2016-06-12T12:03:53.535Z,983.24
2016-06-12T12:04:53.554Z,983.27
2016-06-12T12:05:53.557Z,983.31
2016-06-12T12:06:53.560Z,983.33
2016-06-12T12:07:54.188Z,983.3
2016-06-12T12:08:53.566Z,983.31
2016-06-12T12:09:53.600Z,983.3
2016-06-12T12:10:53.589Z,983.25
2016-06-12T12:11:53.669Z,983.25
2016-06-12T12:12:53.594Z,983.26
2016-06-12T12:13:53.598Z,983.26
2016-06-12T12:14:53.616Z,983.27
2016-06-12T12:15:53.619Z,983.24
2016-06-12T12:16:53.670Z,983.24
2016-06-12T12:17:53.641Z,983.2
2016-06-12T12:18:53.644Z,983.15
2016-06-12T12:19:53.648Z,983.25
2016-06-12T12:20:53.666Z,983.25
2016-06-12T12:21:53.732Z,983.21
2016-06-12T12:22:53.891Z,983.26
2016-06-12T12:23:53.675Z,983.25
2016-06-12T12:24:53.677Z,983.28
2016-06-12T12:25:53.681Z,983.35
2016-06-12T12:26:53.684Z,983.35
2016-06-12T12:27:53.702Z,983.26
2016-06-12T12:28:53.722Z,983.26
2016-06-12T12:29:53.709Z,983.26
2016-06-12T12:30:53.743Z,983.21
2016-06-12T12:31:53.716Z,983.16